createdAt,value
2017-08-02T00:00:52.532Z,99.90
2017-08-02T00:03:20.225Z,99.90
2017-08-02T00:05:47.798Z,99.90
2017-08-02T00:16:54.827Z,99.90
2017-08-02T00:19:22.386Z,99.90
2017-08-02T00:21:49.963Z,99.90
2017-08-02T00:24:17.602Z,99.90
2017-08-02T00:26:45.155Z,99.90
2017-08-02T00:29:12.727Z,99.90
2017-08-02T00:31:40.454Z,99.90
2017-08-02T00:34:08.775Z,99.90
2017-08-02T00:36:36.384Z,99.90
2017-08-02T00:39:04.167Z,99.90
2017-08-02T00:41:31.724Z,99.90
2017-08-02T00:43:59.290Z,99.90
2017-08-02T00:46:26.898Z,99.90
2017-08-02T00:48:54.463Z,99.90
2017-08-02T00:51:22.029Z,99.90
2017-08-02T00:53:49.764Z,99.90
2017-08-02T00:56:17.327Z,99.90
2017-08-02T00:58:44.890Z,99.90
2017-08-02T01:01:12.671Z,99.90
2017-08-02T01:03:40.238Z,99.90
2017-08-02T01:06:07.807Z,99.90
2017-08-02T01:08:36.270Z,99.90
2017-08-02T01:11:03.836Z,99.90
2017-08-02T01:13:31.409Z,99.90
2017-08-02T01:15:59.019Z,99.90
2017-08-02T01:18:26.583Z,99.90
2017-08-02T01:20:54.150Z,99.90
2017-08-02T01:23:21.771Z,99.90
2017-08-02T01:25:49.346Z,99.90
2017-08-02T01:28:16.922Z,99.90
2017-08-02T01:30:44.633Z,99.90
2017-08-02T01:33:12.202Z,99.90
2017-08-02T01:35:39.762Z,99.90
2017-08-02T01:38:07.668Z,99.90
2017-08-02T01:40:35.218Z,99.90
2017-08-02T01:43:02.784Z,99.90
2017-08-02T01:45:30.505Z,99.90
2017-08-02T01:47:58.841Z,99.90
2017-08-02T01:50:26.416Z,99.90
2017-08-02T01:52:54.054Z,99.90
2017-08-02T01:55:22.106Z,99.90
2017-08-02T01:57:49.731Z,99.90
2017-08-02T02:00:18.152Z,99.90
2017-08-02T02:02:45.711Z,99.90
2017-08-02T02:05:13.286Z,99.90
2017-08-02T02:07:41.044Z,99.90
2017-08-02T02:10:08.641Z,99.90
2017-08-02T02:12:37.020Z,99.90
2017-08-02T02:15:05.110Z,99.90
2017-08-02T02:17:32.713Z,99.90
2017-08-02T02:20:00.284Z,99.90
2017-08-02T02:22:28.012Z,99.90
2017-08-02T02:24:55.962Z,99.90
2017-08-02T02:27:23.563Z,99.90
2017-08-02T02:29:51.276Z,99.90
2017-08-02T02:32:19.624Z,99.90
2017-08-02T02:34:47.182Z,99.90
2017-08-02T02:37:15.076Z,99.90
2017-08-02T02:39:43.431Z,99.90
2017-08-02T02:42:10.985Z,99.90
2017-08-02T02:44:38.701Z,99.90
2017-08-02T02:47:06.275Z,99.90
2017-08-02T02:49:33.851Z,99.90
2017-08-02T02:52:01.466Z,99.90
2017-08-02T02:54:29.019Z,99.90
2017-08-02T02:56:57.354Z,99.90
2017-08-02T02:59:25.391Z,99.90
2017-08-02T03:01:52.979Z,99.90
2017-08-02T03:04:20.533Z,99.90
2017-08-02T03:06:48.538Z,99.90
2017-08-02T03:09:16.864Z,99.90
2017-08-02T03:11:44.423Z,99.90
2017-08-02T03:14:12.323Z,99.90
2017-08-02T03:16:39.911Z,99.90
2017-08-02T03:19:08.243Z,99.90
2017-08-02T03:21:36.091Z,99.90
2017-08-02T03:24:03.639Z,99.90
2017-08-02T03:26:31.218Z,99.90
2017-08-02T03:28:59.770Z,99.90
2017-08-02T03:31:27.334Z,99.90
2017-08-02T03:33:54.956Z,99.90
2017-08-02T03:36:22.550Z,99.90
2017-08-02T03:38:50.116Z,99.90
2017-08-02T03:41:17.680Z,99.90
2017-08-02T03:43:45.448Z,99.90
2017-08-02T03:46:13.017Z,99.90
2017-08-02T03:48:40.589Z,99.90
2017-08-02T03:51:08.198Z,99.90
2017-08-02T03:56:14.412Z,99.90
2017-08-02T03:58:41.991Z,99.90
2017-08-02T04:01:09.562Z,99.90
2017-08-02T04:03:37.328Z,99.90
2017-08-02T04:06:04.913Z,99.90
2017-08-02T04:08:33.255Z,99.90
2017-08-02T04:11:00.843Z,99.90
2017-08-02T04:13:28.403Z,99.90
2017-08-02T04:15:56.734Z,99.90
2017-08-02T04:18:24.456Z,99.90
2017-08-02T04:20:52.007Z,99.90
2017-08-02T04:23:20.341Z,99.90
2017-08-02T04:25:47.948Z,99.90
2017-08-02T04:28:16.302Z,99.90
2017-08-02T04:30:43.868Z,99.90
2017-08-02T04:33:11.489Z,99.90
2017-08-02T04:35:39.054Z,99.90
2017-08-02T04:38:06.649Z,99.90
2017-08-02T04:40:34.420Z,99.90
2017-08-02T04:43:02.639Z,99.90
2017-08-02T04:45:30.229Z,99.90
2017-08-02T04:47:58.136Z,99.90
2017-08-02T04:50:26.464Z,99.90
2017-08-02T04:52:54.022Z,99.90
2017-08-02T04:55:21.922Z,99.90
2017-08-02T04:57:49.476Z,99.90
2017-08-02T05:00:17.974Z,99.90
2017-08-02T05:02:46.335Z,99.90
2017-08-02T05:05:13.895Z,99.90
2017-08-02T05:07:41.458Z,99.90
2017-08-02T05:10:09.200Z,99.90
2017-08-02T05:12:36.815Z,99.90
2017-08-02T05:15:04.379Z,99.90
2017-08-02T05:17:32.080Z,99.90
2017-08-02T05:19:59.657Z,99.90
2017-08-02T05:22:27.760Z,99.90
2017-08-02T05:24:55.515Z,99.90
2017-08-02T05:27:23.914Z,99.90
2017-08-02T05:29:51.477Z,99.90
2017-08-02T05:32:19.132Z,99.90
2017-08-02T05:34:46.714Z,99.90
2017-08-02T05:37:14.293Z,99.90
2017-08-02T05:39:42.002Z,99.90
2017-08-02T05:42:09.563Z,99.90
2017-08-02T05:44:37.133Z,99.90
2017-08-02T05:47:04.971Z,99.90
2017-08-02T05:49:32.602Z,99.90
2017-08-02T05:52:00.167Z,99.90
2017-08-02T05:54:27.923Z,99.90
2017-08-02T05:56:55.523Z,99.90
2017-08-02T05:59:23.089Z,99.90
2017-08-02T06:01:50.838Z,99.90
2017-08-02T06:04:19.187Z,99.90
2017-08-02T06:06:46.748Z,99.90
2017-08-02T06:09:14.654Z,99.90
2017-08-02T06:11:42.233Z,99.90
2017-08-02T06:14:09.821Z,99.90
2017-08-02T06:16:37.427Z,99.90
2017-08-02T06:19:05.756Z,99.90
2017-08-02T06:21:33.333Z,99.90
2017-08-02T06:24:01.093Z,99.90
2017-08-02T06:26:28.655Z,99.90
2017-08-02T06:28:56.393Z,99.90
2017-08-02T06:31:24.052Z,99.90
2017-08-02T06:33:51.627Z,99.90
2017-08-02T06:36:19.190Z,99.90
2017-08-02T06:38:47.233Z,99.90
2017-08-02T06:41:14.811Z,99.90
2017-08-02T06:43:42.378Z,99.90
2017-08-02T06:46:09.965Z,99.90
2017-08-02T06:48:37.525Z,99.90
2017-08-02T06:51:05.093Z,99.90
2017-08-02T06:53:33.877Z,99.90
2017-08-02T06:56:03.200Z,99.90
2017-08-02T06:58:51.280Z,99.90
2017-08-02T07:01:21.619Z,99.90
2017-08-02T07:03:52.336Z,99.90
2017-08-02T07:06:20.772Z,99.90
2017-08-02T07:08:52.649Z,99.90
2017-08-02T07:11:24.281Z,99.90
2017-08-02T07:13:53.621Z,99.90
2017-08-02T07:16:24.951Z,99.90
2017-08-02T07:18:53.857Z,99.90
2017-08-02T07:21:23.013Z,99.90
2017-08-02T07:23:51.279Z,99.90
2017-08-02T07:26:20.257Z,99.90
2017-08-02T07:28:49.707Z,99.90
2017-08-02T07:31:20.414Z,99.90
2017-08-02T07:33:48.025Z,99.90
2017-08-02T07:36:15.584Z,99.90
2017-08-02T07:38:43.371Z,99.90
2017-08-02T07:41:10.986Z,99.90
2017-08-02T07:43:38.607Z,99.90
2017-08-02T07:46:06.335Z,99.90
2017-08-02T07:48:34.466Z,99.90
2017-08-02T07:51:02.196Z,99.90
2017-08-02T07:53:30.714Z,99.90
2017-08-02T07:55:58.259Z,99.90
2017-08-02T07:58:25.807Z,99.90
2017-08-02T08:00:53.470Z,99.90
2017-08-02T08:03:21.035Z,99.90
2017-08-02T08:05:48.584Z,99.90
2017-08-02T08:08:16.283Z,99.90
2017-08-02T08:10:43.844Z,99.90
2017-08-02T08:13:11.405Z,99.90
2017-08-02T08:15:39.165Z,99.90
2017-08-02T08:18:06.710Z,99.90
2017-08-02T08:20:34.255Z,99.90
2017-08-02T08:23:01.851Z,99.90
2017-08-02T08:25:29.408Z,99.90
2017-08-02T08:27:57.000Z,99.90
2017-08-02T08:30:24.599Z,99.90
2017-08-02T08:32:52.226Z,99.90
2017-08-02T08:35:19.775Z,99.90
2017-08-02T08:37:47.539Z,99.90
2017-08-02T08:40:15.098Z,99.90
2017-08-02T08:42:42.646Z,99.90
2017-08-02T08:45:10.441Z,99.90
2017-08-02T08:47:37.983Z,99.90
2017-08-02T08:50:05.522Z,99.90
2017-08-02T08:52:33.121Z,99.90
2017-08-02T08:55:00.676Z,99.90
2017-08-02T08:57:28.265Z,99.90
2017-08-02T08:59:56.098Z,99.90
2017-08-02T09:02:24.628Z,99.90
2017-08-02T09:04:52.529Z,99.90
2017-08-02T09:07:20.490Z,99.90
2017-08-02T09:09:48.184Z,99.90
2017-08-02T09:12:15.742Z,99.90
2017-08-02T09:14:47.525Z,99.90
2017-08-02T09:17:15.237Z,99.90
2017-08-02T09:19:42.833Z,99.90
2017-08-02T09:22:10.477Z,99.90
2017-08-02T09:24:38.030Z,99.90
2017-08-02T09:27:05.749Z,98.90
2017-08-02T09:29:33.329Z,97.10
2017-08-02T09:32:00.987Z,97.10
2017-08-02T09:34:28.869Z,95.50
2017-08-02T09:36:56.474Z,94.60
2017-08-02T09:39:24.091Z,94.20
2017-08-02T09:41:51.831Z,92.50
2017-08-02T09:44:19.399Z,91.40
2017-08-02T09:46:46.958Z,91.40
2017-08-02T09:49:14.978Z,92.30
2017-08-02T09:51:42.526Z,93.10
2017-08-02T09:54:10.071Z,92.70
2017-08-02T09:56:37.978Z,92.80
2017-08-02T09:59:05.536Z,92.60
2017-08-02T10:01:33.857Z,91.50
2017-08-02T10:04:01.475Z,91.50
2017-08-02T10:06:29.056Z,92.10
2017-08-02T10:08:56.654Z,92.20
2017-08-02T10:11:24.375Z,93.20
2017-08-02T10:13:51.923Z,92.60
2017-08-02T10:16:19.481Z,95.00
2017-08-02T10:18:47.072Z,95.60
2017-08-02T10:21:14.622Z,95.10
2017-08-02T10:23:42.160Z,95.40
2017-08-02T10:26:10.610Z,97.90
2017-08-02T10:28:38.175Z,97.90
2017-08-02T10:31:05.736Z,98.80
2017-08-02T10:33:33.694Z,99.40
2017-08-02T10:36:01.258Z,98.30
2017-08-02T10:38:31.204Z,98.80
2017-08-02T10:40:58.936Z,98.70
2017-08-02T10:43:26.492Z,98.80
2017-08-02T10:45:54.057Z,98.80
2017-08-02T10:48:21.756Z,99.70
2017-08-02T10:50:49.303Z,99.20
2017-08-02T10:53:17.624Z,98.00
2017-08-02T10:55:45.351Z,98.00
2017-08-02T10:58:12.914Z,98.10
2017-08-02T11:00:40.477Z,97.60
2017-08-02T11:03:08.376Z,97.40
2017-08-02T11:05:35.934Z,97.60
2017-08-02T11:08:03.491Z,97.10
2017-08-02T11:10:31.083Z,96.10
2017-08-02T11:12:58.634Z,95.40
2017-08-02T11:15:26.486Z,94.10
2017-08-02T11:17:54.491Z,94.40
2017-08-02T11:20:22.106Z,95.20
2017-08-02T11:22:49.653Z,95.50
2017-08-02T11:25:17.552Z,93.50
2017-08-02T11:27:45.116Z,94.00
2017-08-02T11:30:12.715Z,92.90
2017-08-02T11:32:40.315Z,92.60
2017-08-02T11:35:08.810Z,92.90
2017-08-02T11:37:36.798Z,94.80
2017-08-02T11:40:04.562Z,93.10
2017-08-02T11:42:32.103Z,91.50
2017-08-02T11:44:59.657Z,91.50
2017-08-02T11:47:27.531Z,90.70
2017-08-02T11:49:55.090Z,88.70
2017-08-02T11:52:22.646Z,90.70
2017-08-02T11:54:50.229Z,90.00
2017-08-02T11:57:17.776Z,89.80
2017-08-02T11:59:45.337Z,90.00
2017-08-02T12:02:12.956Z,88.70
2017-08-02T12:04:40.541Z,89.90
2017-08-02T12:07:08.103Z,84.10
2017-08-02T12:09:36.198Z,82.30
2017-08-02T12:12:04.503Z,85.20
2017-08-02T12:14:32.076Z,87.90
2017-08-02T12:16:59.695Z,90.70
2017-08-02T12:19:27.243Z,90.80
2017-08-02T12:21:54.796Z,87.70
2017-08-02T12:24:22.402Z,88.40
2017-08-02T12:26:49.943Z,91.30
2017-08-02T12:29:17.479Z,91.50
2017-08-02T12:31:45.210Z,92.20
2017-08-02T12:34:12.748Z,93.10
2017-08-02T12:36:40.290Z,93.40
2017-08-02T12:39:07.871Z,93.80
2017-08-02T12:41:35.417Z,93.10
2017-08-02T12:44:02.947Z,93.70
2017-08-02T12:46:30.673Z,93.90
2017-08-02T12:48:59.000Z,93.90
